Copper Center, AK (99573)

10:16 PM AKST on February 19, 2017 (GMT -0900)
Klutina River | | Change Station

Elev 1100 ft 61.95 °N, 145.32 °W | Updated 20 seconds ago

Clear
Clear
-13.0 °F
Feels Like -13 °F
N
0.0
Wind Variable Wind from North
Gusts 0.0 mph

Today
High -- | Low -- °F
--% Chance of Precip.
Yesterday
High -- | Low -- °F
Precip. -- in
Pressure 29.79 in
Visibility 10.0 miles
Clouds Clear
Windchill -13 °F
Dew Point -15 °F
Humidity 90%
Rainfall 0.00 in
Snow Depth Not available.
8:13 AM 5:38 PM
Last Quarter, 36% visible
METAR PAGK 200653Z AUTO 00000KT 10SM CLR M21/M25 A2960 RMK AO2 SLP088 T12111250 TSNO $
Pressure 29.79 in
Visibility 10.0 miles
Clouds Clear
Windchill -13 °F
Dew Point -15 °F
Humidity 90%
Rainfall 0.00 in
Snow Depth Not available.
8:13 AM 5:38 PM
Last Quarter, 36% visible
METAR PAGK 200653Z AUTO 00000KT 10SM CLR M21/M25 A2960 RMK AO2 SLP088 T12111250 TSNO $

Get Your Daily Forecast Email!

Thanks for signing up!

Be on the lookout for a verification email in your inbox.

You'll start receiving the daily forecast at 8 AM.

×

10-Day Weather Forecast

Almanac

Astronomy

Feb. 19, 2017 Rise Set
Actual Time
Civil Twilight
Nautical Twilight
Astronomical Twilight
Moon
Length of Visible Light
Length of Day
Tomorrow will be .
, % of the Moon is Illuminated

Today's Extremes

State Highs State Lows

Community

WunderPhotos

Upload Photos

1,962,540 photos uploaded!

WunderBlog® & News

Nearby

Air Quality

  Air Quality AQ Index Pollutant
Not available.

Snow Depth

Station Depth Elevation

Earthquake Activity

City Distance Mag. Time & Date
Minimum magnitude displayed is 2.5.

Coastal Water Temperatures

Place Temperature

Stations

Nearby Weather Stations

Station Location Temp. Windchill Dew Point Humidity Wind Precip. Elev Updated Type
                   

Watches & Warnings

There are currently no watches in effect.